• Join FlightAware (Why Join?)
  • Login
  • US Flag 
02:16PM EDT


 

Airport Tracker/Info


-or-


 

Live Flight TrackerFlight Track Log ✈ EGF4285 ✈ 10-Jun-2013 ✈ KBWI - KORD

Flight Track Log - Related Links

Times and Time Zones

All times are in EDT time to prevent confusion due to time zone crossing. See the EGF4285 flight status page for this flight to view local times or setup timezone preferences in your user account.

Time Position Orientation Groundspeed Altitude Reporting Facility
EDT Latitude Longitude Course Direction KTS MPH feet Rate Location/Type
06:14AM 39.1500 -76.6500 218° Southwest 170 196 1,300  Level Potomac TRACON
06:14AM 39.1333 -76.6833 237° Southwest 219 252 2,400 1,980 Climbing Potomac TRACON
06:15AM 39.1667 -76.7500 303° West 225 259 4,700 2,100 Climbing Potomac TRACON
06:16AM 39.2000 -77.0381 270° West  Level FlightAware Approximate
06:17AM 39.1905 -77.1595 218° Southwest  Level FlightAware Approximate
06:17AM 39.1881 -76.8661 283° West 236 272 7,800  Level Washington Center
06:18AM 39.1065 -77.2265 211° Southwest  Level FlightAware Approximate
06:18AM 39.2119 -76.9525 290° West 246 283 9,300  Level Washington Center
06:19AM 39.0229 -77.2938 218° Southwest  Level FlightAware Approximate
06:19AM 39.2108 -77.0514 269° West 263 303 11,100  Level Washington Center
06:20AM 39.2033 -77.1506 264° West 274 315 12,500 1,620 Climbing Washington Center
06:21AM 39.1303 -77.1731 193° South 223 257 14,400 1,500 Climbing Washington Center
06:22AM 39.0636 -77.1661 175° South 235 270 15,600 1,320 Climbing Washington Center
06:23AM 39.0183 -77.2667 240° Southwest 243 280 17,100 1,200 Climbing Washington Center
06:24AM 39.0128 -77.3708 266° West 240 276 18,000 900 Climbing Washington Center
06:25AM 39.0050 -77.4800 265° West 270 311 18,900 960 Climbing Washington Center
06:26AM 39.0011 -77.5922 267° West 308 354 20,000 1,020 Climbing Washington Center
06:27AM 38.9931 -77.6881 264° West 321 369 21,000 960 Climbing Washington Center
06:28AM 38.9867 -77.8136 266° West 321 369 22,000 960 Climbing Washington Center
06:29AM 38.9783 -77.9308 265° West 326 375 23,000 1,020 Climbing Washington Center
06:30AM 38.9183 -78.0142 227° Southwest 314 361 24,100 1,020 Climbing Washington Center
06:31AM 38.8458 -78.0839 217° Southwest 314 361 25,100 1,020 Climbing Washington Center
06:32AM 38.8228 -78.1897 254° West 308 354 26,200 1,020 Climbing Washington Center
06:33AM 38.8514 -78.3078 287° West 304 350 27,200 960 Climbing Washington Center
06:34AM 38.8800 -78.4236 288° West 326 375 28,200 960 Climbing Washington Center
06:35AM 38.9086 -78.5422 287° West 339 390 29,200 1,080 Climbing Washington Center
06:36AM 38.9347 -78.6606 286° West 344 396 30,300 1,080 Climbing Washington Center
06:37AM 38.9608 -78.7792 286° West 344 396 31,400 1,020 Climbing Washington Center
06:38AM 38.9828 -78.8950 284° West 344 396 32,500 1,080 Climbing Washington Center
06:39AM 38.9878 -79.0128 273° West 339 390 33,600 720 Climbing Washington Center
06:40AM 38.9883 -79.1328 270° West 334 384 34,000 180 Climbing Washington Center
06:41AM 38.9911 -79.2558 272° West 334 384 34,000  Level Washington Center
06:42AM 38.9936 -79.3761 272° West 339 390 34,000  Level Washington Center
06:43AM 38.9958 -79.4964 271° West 339 390 34,000  Level Washington Center
06:44AM 39.0003 -79.6144 273° West 334 384 34,000  Level Washington Center
06:45AM 39.0008 -79.7267 270° West 334 384 34,000  Level Washington Center
06:46AM 39.0031 -79.8389 271° West 334 384 34,000  Level Washington Center
06:47AM 39.0050 -79.9619 271° West 341 392 34,000  Level Washington Center
06:49AM 39.0058 -80.2406 270° West 388 447 34,000  Level Indianapolis Center
06:50AM 39.0086 -80.3825 271° West 396 456 34,000  Level Indianapolis Center
06:51AM 39.0108 -80.5178 271° West 384 442 34,000 120 Level Indianapolis Center
06:52AM 39.0119 -80.6556 271° West 385 443 34,300 600 Climbing Indianapolis Center
06:53AM 39.0125 -80.7936 270° West 387 445 35,300 840 Climbing Indianapolis Center
06:54AM 39.0306 -80.9253 280° West 387 445 36,000 300 Climbing Indianapolis Center
06:55AM 39.0756 -81.0550 294° West 400 460 36,000  Level Indianapolis Center
06:56AM 39.1203 -81.1875 294° West 405 466 36,000  Level Indianapolis Center
06:57AM 39.1700 -81.3411 293° West 394 453 36,000  Level Indianapolis Center
06:58AM 39.2125 -81.4683 293° West 389 448 36,000  Level Indianapolis Center
06:59AM 39.2544 -81.5953 293° West 387 445 36,000  Level Indianapolis Center
07:00AM 39.2958 -81.7233 293° West 388 447 36,000  Level Indianapolis Center
07:01AM 39.3369 -81.8511 293° West 387 445 36,000  Level Indianapolis Center
07:02AM 39.3789 -81.9789 293° West 386 444 36,000  Level Indianapolis Center
07:03AM 39.4200 -82.1067 293° West 386 444 36,000  Level Indianapolis Center
07:04AM 39.4647 -82.2483 292° West 386 444 36,000  Level Indianapolis Center
07:05AM 39.5058 -82.3786 292° West 387 445 36,000  Level Indianapolis Center
07:06AM 39.5467 -82.5072 292° West 384 442 36,000  Level Indianapolis Center
07:07AM 39.5881 -82.6375 292° West 386 444 36,000  Level Indianapolis Center
07:08AM 39.6292 -82.7689 292° West 389 448 36,000  Level Indianapolis Center
07:09AM 39.6711 -82.9006 293° West 391 450 36,000  Level Indianapolis Center
07:10AM 39.7122 -83.0328 292° West 391 450 36,000  Level Indianapolis Center
07:11AM 39.7528 -83.1647 292° West 390 449 36,000  Level Indianapolis Center
07:12AM 39.7931 -83.2944 292° West 385 443 36,000  Level Indianapolis Center
07:13AM 39.8347 -83.4300 292° West 390 449 36,000  Level Indianapolis Center
07:14AM 39.8742 -83.5642 291° West 396 456 36,000  Level Indianapolis Center
07:15AM 39.9197 -83.7131 292° West 407 468 36,000  Level Indianapolis Center
07:16AM 39.9625 -83.8544 292° West 414 476 36,000  Level Indianapolis Center
07:17AM 40.0058 -83.9953 292° West 417 480 36,000  Level Indianapolis Center
07:18AM 40.0467 -84.1350 291° West 412 474 36,000  Level Indianapolis Center
07:19AM 40.0894 -84.2753 292° West 412 474 36,000 -360 Level Indianapolis Center
07:20AM 40.1303 -84.4131 291° West 405 466 35,300 -840 Descending Indianapolis Center
07:21AM 40.1725 -84.5628 290° West 434 499 34,300 -1,020 Descending Indianapolis Center
07:22AM 40.2158 -84.7128 291° West 436 502 33,300 -1,140 Descending Indianapolis Center
07:23AM 40.2608 -84.8603 292° West 434 499 32,000 -1,560 Descending Indianapolis Center
07:25AM 40.3011 -85.0086 290° West 452 520 30,200 -1,980 Descending Indianapolis Center
07:26AM 40.3469 -85.1672 291° West 467 537 28,000 -1,740 Descending Indianapolis Center
07:26AM 40.3839 -85.2928 291° West 471 542 27,100 -1,080 Descending Chicago Center
07:27AM 40.4469 -85.4458 298° West 495 570 26,100 -1,020 Descending Chicago Center
07:28AM 40.5567 -85.5606 322° Northwest 508 585 25,100 -1,080 Descending Chicago Center
07:29AM 40.6844 -85.6983 321° Northwest 500 575 24,000 -540 Descending Chicago Center
07:30AM 40.7978 -85.7944 327° Northwest 505 581 24,000 -180 Level Chicago Center
07:31AM 40.9322 -85.8492 343° North 504 580 23,700 -720 Descending Chicago Center
07:32AM 41.0217 -85.9628 316° Northwest 455 524 22,600 -1,080 Descending Chicago Center
07:33AM 41.0431 -86.1089 281° West 415 478 21,600 -1,080 Descending Chicago Center
07:34AM 41.0447 -86.2578 271° West 407 468 20,500 -840 Descending Chicago Center
07:36AM 41.0442 -86.4033 270° West 400 460 20,000 -540 Descending Chicago Center
07:37AM 41.0761 -86.5431 287° West 409 471 19,500 -1,080 Descending Chicago Center
07:38AM 41.1353 -86.6731 301° West 411 473 17,800 -1,680 Descending Chicago Center
07:39AM 41.2036 -86.8236 301° West 404 465 16,100 -900 Descending Chicago Center
07:40AM 41.2581 -86.9478 300° West 394 453 16,000 -900 Descending Chicago Center
07:41AM 41.3106 -87.0711 300° West 390 449 14,300 -1,980 Descending Chicago Center
07:42AM 41.3633 -87.1922 300° West 384 442 12,000 -1,620 Descending Chicago Center
07:43AM 41.4344 -87.2733 319° Northwest 337 388 11,100 -540 Descending Chicago Center
07:44AM 41.4983 -87.3461 320° Northwest 310 357 11,000 -60 Descending Chicago Center
07:45AM 41.5731 -87.4317 319° Northwest 301 346 11,000 -840 Level Chicago Center
07:46AM 41.6342 -87.5031 319° Northwest 296 341 9,300 -1,740 Descending Chicago Center
07:47AM 41.7025 -87.5369 340° North 286 329 7,500 -1,140 Descending Chicago Center
07:48AM 41.7783 -87.5414 357° North 275 316 7,000 -300 Descending Chicago Center
07:49AM 41.8519 -87.5417 360° North 269 310 7,000 -480 Level Chicago Center
07:50AM 41.8958 -87.4547 56° Northeast 286 329 6,100 -660 Descending Chicago Center
07:51AM 41.9203 -87.3461 73° East 270 311 5,700 -540 Descending Chicago Center
07:52AM 41.9681 -87.3925 324° Northwest 240 276 5,000 -360 Descending Chicago Center
07:53AM 41.9683 -87.4767 270° West 230 265 5,000  Level Chicago Center
07:54AM 41.9683 -87.5539 270° West 216 249 5,100 -360 Climbing Chicago Center
07:55AM 41.9681 -87.6278 270° West 202 232 4,300 -840 Descending Chicago Center